Time;durP1;ratioP1;P1;durP2;ratioP2;P2;SDS_P1;SDS_P2;PMS_P1;PMS_P2;Temp;Humidity;BMP_temperature;BMP_pressure;BME280_temperature;BME280_humidity;BME280_pressure;Samples;Min_cycle;Max_cycle;Signal;HPM_P1;HPM_P2
2022/05/11 00:00:15;;;;;;;17.77;5.57;;;;;;;;;;4995676;28;20033;-67
2022/05/11 00:02:40;;;;;;;20.83;6.10;;;;;;;;;;4992985;28;20033;-67
2022/05/11 00:05:11;;;;;;;24.15;6.20;;;;;;;;;;4993932;28;20111;-67
2022/05/11 00:07:37;;;;;;;26.83;5.93;;;;;;;;;;4976679;28;20495;-67
2022/05/11 00:10:03;;;;;;;25.73;6.93;;;;;;;;;;4991020;28;20029;-68
2022/05/11 00:12:28;;;;;;;26.98;7.95;;;;;;;;;;4994585;28;20033;-66
2022/05/11 00:14:54;;;;;;;20.65;6.85;;;;;;;;;;4995048;28;20563;-67
2022/05/11 00:17:19;;;;;;;23.52;7.13;;;;;;;;;;4995306;28;20754;-68
2022/05/11 00:19:46;;;;;;;20.65;6.70;;;;;;;;;;4992323;28;20037;-69
2022/05/11 00:22:12;;;;;;;24.73;6.15;;;;;;;;;;4993965;28;20144;-67
2022/05/11 00:24:37;;;;;;;20.23;6.38;;;;;;;;;;4994771;28;20616;-68
2022/05/11 00:27:04;;;;;;;26.65;6.60;;;;;;;;;;4997846;28;20067;-67
2022/05/11 00:29:31;;;;;;;20.77;6.03;;;;;;;;;;4992403;28;20040;-66
2022/05/11 00:31:57;;;;;;;21.90;6.30;;;;;;;;;;4993706;28;20495;-68
2022/05/11 00:34:24;;;;;;;17.52;6.15;;;;;;;;;;4994374;28;20822;-67
2022/05/11 00:36:50;;;;;;;23.35;5.95;;;;;;;;;;4994600;28;21902;-67
2022/05/11 00:39:15;;;;;;;21.35;5.93;;;;;;;;;;4997400;28;20043;-68
2022/05/11 00:41:41;;;;;;;21.98;6.15;;;;;;;;;;4995915;28;20051;-68
2022/05/11 00:44:09;;;;;;;18.15;5.50;;;;;;;;;;4995848;28;20029;-68
2022/05/11 00:46:44;;;;;;;17.05;5.50;;;;;;;;;;4993146;28;20623;-68
2022/05/11 00:51:58;;;;;;;29.67;5.95;;;;;;;;;;4991833;28;20550;-67
2022/05/11 00:54:28;;;;;;;29.08;6.15;;;;;;;;;;4994269;28;20411;-66
2022/05/11 00:56:55;;;;;;;17.38;5.45;;;;;;;;;;4994941;28;20143;-66
2022/05/11 00:59:25;;;;;;;20.75;5.78;;;;;;;;;;4995333;28;20037;-67
2022/05/11 01:01:51;;;;;;;23.70;5.55;;;;;;;;;;4992344;28;20464;-67
2022/05/11 01:04:17;;;;;;;20.08;5.78;;;;;;;;;;4993353;28;20202;-67
2022/05/11 01:06:43;;;;;;;22.45;5.10;;;;;;;;;;4993589;28;21759;-66
2022/05/11 01:09:10;;;;;;;23.52;6.00;;;;;;;;;;4994680;28;20126;-67
2022/05/11 01:11:39;;;;;;;19.65;5.63;;;;;;;;;;4994061;28;20474;-67
2022/05/11 01:14:06;;;;;;;16.70;5.43;;;;;;;;;;5008448;28;20758;-68
2022/05/11 01:16:32;;;;;;;23.08;5.70;;;;;;;;;;4993963;28;20037;-67
2022/05/11 01:18:58;;;;;;;19.88;5.75;;;;;;;;;;4992119;28;20556;-67
2022/05/11 01:21:31;;;;;;;17.00;4.82;;;;;;;;;;4994362;28;20756;-67
2022/05/11 01:24:02;;;;;;;19.70;5.43;;;;;;;;;;4992790;28;20061;-66
2022/05/11 01:26:31;;;;;;;23.80;5.63;;;;;;;;;;4994571;28;20029;-68
2022/05/11 01:28:56;;;;;;;18.67;4.90;;;;;;;;;;4993336;28;20048;-67
2022/05/11 01:31:24;;;;;;;21.98;4.70;;;;;;;;;;4991416;28;20037;-68
2022/05/11 01:33:52;;;;;;;24.83;5.35;;;;;;;;;;4991474;28;20111;-67
2022/05/11 01:36:28;;;;;;;19.42;5.97;;;;;;;;;;4993653;28;20064;-67
2022/05/11 01:38:59;;;;;;;21.83;4.95;;;;;;;;;;4993515;28;20059;-67
2022/05/11 01:41:32;;;;;;;22.48;5.43;;;;;;;;;;4993416;28;20551;-67
2022/05/11 01:43:58;;;;;;;20.27;5.63;;;;;;;;;;4992130;28;20064;-68
2022/05/11 01:46:23;;;;;;;25.13;6.25;;;;;;;;;;4994033;28;20040;-66
2022/05/11 01:48:49;;;;;;;19.60;5.80;;;;;;;;;;4991137;28;20608;-67
2022/05/11 01:51:17;;;;;;;24.90;5.25;;;;;;;;;;4994314;28;20037;-67
2022/05/11 01:53:45;;;;;;;20.73;5.20;;;;;;;;;;5006602;28;20121;-67
2022/05/11 01:56:13;;;;;;;21.83;5.18;;;;;;;;;;4990580;28;20038;-67
2022/05/11 01:58:38;;;;;;;18.42;4.53;;;;;;;;;;4993961;28;20033;-67
2022/05/11 02:01:04;;;;;;;18.75;5.35;;;;;;;;;;4994277;28;20565;-67
2022/05/11 02:03:29;;;;;;;18.75;4.07;;;;;;;;;;4992810;28;20662;-67
2022/05/11 02:08:39;;;;;;;19.00;4.22;;;;;;;;;;4994096;28;20030;-68
2022/05/11 02:11:05;;;;;;;16.27;4.43;;;;;;;;;;4994102;28;20187;-68
2022/05/11 02:13:30;;;;;;;22.42;4.65;;;;;;;;;;5004907;28;20158;-67
2022/05/11 02:15:58;;;;;;;17.70;4.38;;;;;;;;;;4993404;28;20199;-67
2022/05/11 02:18:24;;;;;;;24.42;4.57;;;;;;;;;;4994252;28;20073;-67
2022/05/11 02:20:49;;;;;;;19.70;4.35;;;;;;;;;;4993774;28;20797;-68
2022/05/11 02:23:18;;;;;;;16.77;4.00;;;;;;;;;;4993949;28;20359;-67
2022/05/11 02:25:44;;;;;;;22.45;5.07;;;;;;;;;;4992193;28;20132;-67
2022/05/11 02:28:10;;;;;;;18.88;4.18;;;;;;;;;;4993230;28;20044;-68
2022/05/11 02:30:36;;;;;;;21.95;4.88;;;;;;;;;;4993337;28;20063;-68
2022/05/11 02:33:03;;;;;;;18.50;4.00;;;;;;;;;;4994259;28;20319;-68
2022/05/11 02:35:29;;;;;;;14.73;3.97;;;;;;;;;;4992707;28;20041;-68
2022/05/11 02:37:59;;;;;;;19.48;4.45;;;;;;;;;;4993625;28;20906;-67
2022/05/11 02:40:27;;;;;;;23.88;4.70;;;;;;;;;;4992368;28;20050;-68
2022/05/11 02:42:55;;;;;;;17.33;4.30;;;;;;;;;;4993432;28;20385;-68
2022/05/11 02:45:21;;;;;;;21.77;4.68;;;;;;;;;;4990204;28;20107;-68
2022/05/11 02:47:47;;;;;;;17.70;4.15;;;;;;;;;;4993395;28;20044;-68
2022/05/11 02:50:14;;;;;;;17.88;4.25;;;;;;;;;;4990793;28;20108;-68
2022/05/11 02:52:39;;;;;;;23.23;5.53;;;;;;;;;;4993977;28;20284;-68
2022/05/11 02:55:05;;;;;;;21.48;4.20;;;;;;;;;;4992315;28;20033;-68
2022/05/11 02:57:30;;;;;;;16.05;4.18;;;;;;;;;;4991174;28;20535;-67
2022/05/11 02:59:57;;;;;;;19.23;4.22;;;;;;;;;;4992762;28;20613;-67
2022/05/11 03:02:25;;;;;;;19.65;4.22;;;;;;;;;;4991003;28;20622;-68
2022/05/11 03:04:53;;;;;;;15.82;3.45;;;;;;;;;;4992649;28;20060;-68
2022/05/11 03:07:19;;;;;;;20.27;4.25;;;;;;;;;;5000633;28;20033;-68
2022/05/11 03:09:45;;;;;;;19.95;4.18;;;;;;;;;;4993004;28;20555;-67
2022/05/11 03:12:11;;;;;;;17.92;4.00;;;;;;;;;;4994079;28;20037;-67
2022/05/11 03:14:36;;;;;;;19.33;5.15;;;;;;;;;;4996495;28;20068;-67
2022/05/11 03:17:02;;;;;;;20.27;4.38;;;;;;;;;;4996597;28;20037;-68
2022/05/11 03:19:27;;;;;;;17.50;4.43;;;;;;;;;;4993189;28;20037;-67
2022/05/11 03:21:53;;;;;;;20.35;4.35;;;;;;;;;;4996322;28;20592;-67
2022/05/11 03:24:18;;;;;;;15.70;3.75;;;;;;;;;;4993797;28;20717;-67
2022/05/11 03:26:46;;;;;;;19.58;4.22;;;;;;;;;;4993634;28;20048;-67
2022/05/11 03:29:12;;;;;;;19.20;4.05;;;;;;;;;;4995848;28;20037;-68
2022/05/11 03:31:38;;;;;;;20.98;4.28;;;;;;;;;;4995447;28;20264;-67
2022/05/11 03:36:47;;;;;;;20.90;4.40;;;;;;;;;;4996700;28;20044;-68
2022/05/11 03:39:15;;;;;;;23.70;5.22;;;;;;;;;;4995786;28;20095;-67
2022/05/11 03:41:40;;;;;;;22.08;4.10;;;;;;;;;;4993992;28;20595;-65
2022/05/11 03:44:05;;;;;;;20.88;4.28;;;;;;;;;;4997815;28;20033;-68
2022/05/11 03:46:31;;;;;;;23.45;4.60;;;;;;;;;;4992438;28;20451;-67
2022/05/11 03:48:56;;;;;;;18.13;4.00;;;;;;;;;;4994125;28;20036;-67
2022/05/11 03:51:23;;;;;;;25.88;4.68;;;;;;;;;;4994318;28;20037;-65
2022/05/11 03:53:49;;;;;;;18.48;4.45;;;;;;;;;;4994654;28;20044;-64
2022/05/11 03:56:15;;;;;;;19.50;4.43;;;;;;;;;;4990892;28;20428;-65
2022/05/11 03:58:40;;;;;;;20.10;4.15;;;;;;;;;;5003678;28;20179;-66
2022/05/11 04:01:05;;;;;;;18.60;4.63;;;;;;;;;;4992325;28;20406;-66
2022/05/11 04:03:31;;;;;;;22.63;4.15;;;;;;;;;;4995349;28;20112;-66
2022/05/11 04:05:56;;;;;;;21.25;4.57;;;;;;;;;;4984898;28;20168;-65
2022/05/11 04:08:22;;;;;;;20.20;4.55;;;;;;;;;;4993451;28;20037;-67
2022/05/11 04:10:47;;;;;;;20.27;4.65;;;;;;;;;;4994615;28;20135;-67
2022/05/11 04:13:12;;;;;;;23.77;4.60;;;;;;;;;;4992815;28;20037;-65
2022/05/11 04:15:40;;;;;;;17.73;3.97;;;;;;;;;;4992011;28;20457;-67
2022/05/11 04:18:06;;;;;;;22.77;3.70;;;;;;;;;;4991652;28;20035;-65
2022/05/11 04:20:34;;;;;;;24.80;4.63;;;;;;;;;;4994717;28;20037;-66
2022/05/11 04:22:59;;;;;;;15.50;3.70;;;;;;;;;;4995063;28;20200;-67
2022/05/11 04:25:29;;;;;;;21.85;4.20;;;;;;;;;;4994634;28;20617;-67
2022/05/11 04:27:55;;;;;;;24.17;4.60;;;;;;;;;;4995804;28;20037;-67
2022/05/11 04:30:26;;;;;;;24.40;4.75;;;;;;;;;;4995620;28;20148;-68
2022/05/11 04:32:51;;;;;;;22.70;4.95;;;;;;;;;;4995007;28;20052;-67
2022/05/11 04:35:19;;;;;;;20.33;4.18;;;;;;;;;;4992478;28;20029;-68
2022/05/11 04:37:44;;;;;;;24.10;4.72;;;;;;;;;;4992128;28;20290;-66
2022/05/11 04:40:11;;;;;;;22.15;3.90;;;;;;;;;;4995952;28;20144;-67
2022/05/11 04:42:37;;;;;;;24.33;3.80;;;;;;;;;;4995092;28;20043;-68
2022/05/11 04:45:03;;;;;;;22.00;4.53;;;;;;;;;;4994849;28;20785;-67
2022/05/11 04:47:28;;;;;;;18.90;4.03;;;;;;;;;;4993244;28;20025;-67
2022/05/11 04:49:54;;;;;;;21.45;4.38;;;;;;;;;;4999536;28;20146;-68
2022/05/11 04:52:19;;;;;;;24.55;4.10;;;;;;;;;;4992030;28;20494;-66
2022/05/11 04:54:48;;;;;;;21.17;4.35;;;;;;;;;;4997775;28;20075;-68
2022/05/11 04:57:13;;;;;;;20.67;4.38;;;;;;;;;;4998747;28;20041;-66
2022/05/11 04:59:41;;;;;;;17.55;3.78;;;;;;;;;;4996199;28;20033;-67
2022/05/11 05:02:12;;;;;;;27.60;5.22;;;;;;;;;;4993513;28;20045;-68
2022/05/11 05:04:37;;;;;;;18.45;4.10;;;;;;;;;;5010405;28;20686;-67
2022/05/11 05:07:03;;;;;;;24.92;4.93;;;;;;;;;;4994252;28;20037;-66
2022/05/11 05:09:29;;;;;;;19.20;4.13;;;;;;;;;;4995364;28;20840;-67
2022/05/11 05:11:56;;;;;;;21.77;4.07;;;;;;;;;;4995146;28;21168;-67
2022/05/11 05:14:22;;;;;;;18.38;4.10;;;;;;;;;;4992351;28;20191;-67
2022/05/11 05:16:48;;;;;;;29.88;5.00;;;;;;;;;;4995588;28;20127;-68
2022/05/11 05:19:14;;;;;;;23.10;4.80;;;;;;;;;;4995192;28;20840;-68
2022/05/11 05:21:39;;;;;;;19.92;4.10;;;;;;;;;;4997315;28;20041;-65
2022/05/11 05:24:05;;;;;;;23.88;4.30;;;;;;;;;;4996958;28;20060;-66
2022/05/11 05:26:30;;;;;;;24.35;4.70;;;;;;;;;;4999170;28;20707;-68
2022/05/11 05:31:40;;;;;;;17.45;3.72;;;;;;;;;;4998331;28;20069;-69
2022/05/11 05:34:05;;;;;;;19.48;4.40;;;;;;;;;;4998115;28;20071;-67
2022/05/11 05:36:35;;;;;;;28.58;4.53;;;;;;;;;;4995613;28;21882;-66
2022/05/11 05:39:03;;;;;;;21.33;4.45;;;;;;;;;;4997560;28;20549;-67
2022/05/11 05:41:29;;;;;;;24.02;4.40;;;;;;;;;;4998543;28;20045;-68
2022/05/11 05:43:54;;;;;;;22.70;3.90;;;;;;;;;;4997545;28;20184;-67
2022/05/11 05:46:20;;;;;;;21.90;4.70;;;;;;;;;;4997513;28;20139;-69
2022/05/11 05:48:46;;;;;;;23.63;4.85;;;;;;;;;;5004583;28;20052;-68
2022/05/11 05:51:13;;;;;;;21.77;4.35;;;;;;;;;;4993775;28;20041;-67
2022/05/11 05:53:40;;;;;;;18.23;3.60;;;;;;;;;;5012041;28;20106;-68
2022/05/11 05:56:05;;;;;;;20.23;4.50;;;;;;;;;;4998266;28;20030;-68
2022/05/11 05:58:33;;;;;;;22.15;4.10;;;;;;;;;;4996915;28;20037;-68
2022/05/11 06:00:59;;;;;;;20.15;3.92;;;;;;;;;;4997441;28;20048;-68
2022/05/11 06:03:27;;;;;;;23.10;4.05;;;;;;;;;;4998521;28;20060;-68
2022/05/11 06:05:52;;;;;;;20.13;3.95;;;;;;;;;;4997330;28;20185;-68
2022/05/11 06:08:17;;;;;;;26.83;4.55;;;;;;;;;;4998105;28;20033;-68
2022/05/11 06:10:45;;;;;;;30.20;4.75;;;;;;;;;;5012941;28;20791;-69
2022/05/11 06:13:15;;;;;;;26.90;4.45;;;;;;;;;;5000494;28;20186;-68
2022/05/11 06:15:42;;;;;;;19.45;3.55;;;;;;;;;;4998812;28;20056;-68
2022/05/11 06:18:09;;;;;;;24.77;3.83;;;;;;;;;;4998334;28;20049;-69
2022/05/11 06:20:34;;;;;;;29.17;4.32;;;;;;;;;;4996158;28;20130;-68
2022/05/11 06:23:01;;;;;;;23.58;3.75;;;;;;;;;;4992802;28;20033;-68
2022/05/11 06:25:27;;;;;;;28.40;4.22;;;;;;;;;;4992322;28;20030;-68
2022/05/11 06:27:52;;;;;;;24.73;3.97;;;;;;;;;;4993341;28;20044;-67
2022/05/11 06:30:20;;;;;;;20.38;3.63;;;;;;;;;;4993861;28;20611;-68
2022/05/11 06:32:48;;;;;;;28.30;4.45;;;;;;;;;;4993231;28;20152;-69
2022/05/11 06:35:15;;;;;;;22.10;3.78;;;;;;;;;;4990778;28;20044;-66
2022/05/11 06:37:40;;;;;;;22.17;4.13;;;;;;;;;;4990725;28;20037;-69
2022/05/11 06:40:06;;;;;;;24.33;3.50;;;;;;;;;;4991394;28;20041;-69
2022/05/11 06:42:32;;;;;;;20.38;3.53;;;;;;;;;;4991195;28;20673;-69
2022/05/11 06:44:58;;;;;;;22.08;4.13;;;;;;;;;;4993723;28;20073;-68
2022/05/11 06:47:26;;;;;;;26.50;3.97;;;;;;;;;;4993904;28;20044;-70
2022/05/11 06:49:51;;;;;;;20.20;3.88;;;;;;;;;;4997008;28;20041;-66
2022/05/11 06:52:17;;;;;;;23.33;3.40;;;;;;;;;;4998623;28;20651;-68
2022/05/11 07:00:13;;;;;;;19.23;3.55;;;;;;;;;;4998517;28;20033;-69
2022/05/11 07:02:39;;;;;;;22.00;4.18;;;;;;;;;;5001196;28;20150;-67
2022/05/11 07:05:05;;;;;;;18.08;3.30;;;;;;;;;;5001542;28;20048;-69
2022/05/11 07:07:31;;;;;;;24.80;4.45;;;;;;;;;;5001187;28;20037;-69
2022/05/11 07:09:56;;;;;;;21.38;3.80;;;;;;;;;;5001175;28;20040;-69
2022/05/11 07:12:25;;;;;;;22.75;3.90;;;;;;;;;;4999088;28;20144;-65
2022/05/11 07:14:51;;;;;;;25.23;3.60;;;;;;;;;;4999304;28;20098;-71
2022/05/11 07:17:27;;;;;;;21.05;3.60;;;;;;;;;;5002641;28;20074;-70
2022/05/11 07:19:53;;;;;;;18.75;3.30;;;;;;;;;;4997889;28;20033;-68
2022/05/11 07:22:18;;;;;;;21.52;4.38;;;;;;;;;;4998420;28;20820;-69
2022/05/11 07:24:44;;;;;;;23.77;3.83;;;;;;;;;;4994787;28;20205;-67
2022/05/11 07:27:11;;;;;;;28.23;4.18;;;;;;;;;;4997771;28;20093;-69
2022/05/11 07:29:37;;;;;;;22.98;3.55;;;;;;;;;;4996724;28;20038;-67
2022/05/11 07:32:03;;;;;;;27.55;4.07;;;;;;;;;;4996786;28;20218;-68
2022/05/11 07:34:30;;;;;;;25.15;3.92;;;;;;;;;;4996843;28;20029;-68
2022/05/11 07:36:58;;;;;;;22.67;3.45;;;;;;;;;;4997956;28;20037;-70
2022/05/11 07:39:24;;;;;;;21.80;3.70;;;;;;;;;;4993165;28;20132;-71
2022/05/11 07:41:50;;;;;;;24.15;3.63;;;;;;;;;;4994886;28;20107;-70
2022/05/11 07:44:16;;;;;;;22.13;4.07;;;;;;;;;;4996509;28;20155;-70
2022/05/11 07:46:42;;;;;;;23.17;4.03;;;;;;;;;;4995988;28;20084;-72
2022/05/11 07:49:07;;;;;;;21.65;3.80;;;;;;;;;;4996546;28;20037;-70
2022/05/11 07:51:33;;;;;;;28.02;3.90;;;;;;;;;;4993920;28;20100;-68
2022/05/11 07:53:58;;;;;;;27.10;3.92;;;;;;;;;;4991315;28;20033;-72
2022/05/11 08:01:54;;;;;;;28.55;4.22;;;;;;;;;;4996200;28;20045;-71
2022/05/11 08:04:22;;;;;;;28.05;4.32;;;;;;;;;;4993496;28;20443;-68
2022/05/11 08:06:47;;;;;;;22.42;4.20;;;;;;;;;;4980023;28;20490;-67
2022/05/11 08:09:15;;;;;;;27.92;4.45;;;;;;;;;;4993550;28;20044;-68
2022/05/11 08:11:41;;;;;;;26.35;4.38;;;;;;;;;;4996429;28;20136;-67
2022/05/11 08:14:08;;;;;;;28.15;4.78;;;;;;;;;;4993738;28;20517;-67
2022/05/11 08:16:38;;;;;;;25.98;4.78;;;;;;;;;;4995592;28;20675;-69
2022/05/11 08:19:04;;;;;;;33.83;3.92;;;;;;;;;;4995731;28;22060;-69
2022/05/11 08:21:33;;;;;;;31.98;4.70;;;;;;;;;;4998542;28;20051;-68
2022/05/11 08:23:59;;;;;;;27.60;4.63;;;;;;;;;;4996164;28;20143;-72
2022/05/11 08:26:25;;;;;;;37.28;4.65;;;;;;;;;;4995393;28;20848;-71
2022/05/11 08:28:50;;;;;;;26.50;4.05;;;;;;;;;;4998820;28;20049;-74
2022/05/11 08:34:02;;;;;;;28.13;5.07;;;;;;;;;;4997132;28;20037;-72
2022/05/11 08:36:28;;;;;;;28.05;4.30;;;;;;;;;;4995484;28;20277;-70
2022/05/11 08:38:55;;;;;;;24.70;4.00;;;;;;;;;;4995047;28;20069;-68
2022/05/11 08:41:32;;;;;;;22.45;3.70;;;;;;;;;;4986508;28;20157;-68
2022/05/11 08:44:00;;;;;;;25.95;4.30;;;;;;;;;;4996092;28;20051;-71
2022/05/11 08:46:38;;;;;;;31.73;5.00;;;;;;;;;;4995716;28;20162;-73
2022/05/11 08:49:12;;;;;;;27.65;4.15;;;;;;;;;;4994740;28;20469;-68
2022/05/11 08:51:50;;;;;;;25.10;4.70;;;;;;;;;;4994758;28;20045;-73
2022/05/11 08:54:44;;;;;;;27.20;4.95;;;;;;;;;;4995338;28;20691;-69
2022/05/11 08:57:13;;;;;;;32.67;5.35;;;;;;;;;;4995928;28;20041;-74
2022/05/11 08:59:39;;;;;;;22.42;4.85;;;;;;;;;;4994999;28;20035;-74
2022/05/11 09:02:05;;;;;;;25.08;4.38;;;;;;;;;;4996266;28;20553;-71
2022/05/11 09:04:52;;;;;;;22.52;4.60;;;;;;;;;;4997794;28;20594;-70
2022/05/11 09:07:22;;;;;;;25.27;4.82;;;;;;;;;;4994597;28;20724;-70
2022/05/11 09:09:50;;;;;;;30.77;5.15;;;;;;;;;;5008191;28;20462;-69
2022/05/11 09:12:16;;;;;;;32.25;5.32;;;;;;;;;;4997330;28;20071;-67
2022/05/11 09:14:49;;;;;;;29.30;5.32;;;;;;;;;;4993994;28;20037;-67
2022/05/11 09:17:22;;;;;;;24.92;4.93;;;;;;;;;;4995193;28;20072;-68
2022/05/11 09:19:57;;;;;;;29.63;5.70;;;;;;;;;;4993612;28;20061;-69
2022/05/11 09:22:24;;;;;;;28.40;5.03;;;;;;;;;;4993154;28;20616;-71
2022/05/11 09:25:02;;;;;;;26.40;4.82;;;;;;;;;;4989281;28;20639;-69
2022/05/11 09:27:28;;;;;;;28.30;4.90;;;;;;;;;;4994827;28;21108;-68
2022/05/11 09:29:55;;;;;;;35.65;5.13;;;;;;;;;;4994437;28;20574;-67
2022/05/11 09:32:37;;;;;;;29.00;5.45;;;;;;;;;;4992828;28;20037;-70
2022/05/11 09:35:14;;;;;;;31.02;5.70;;;;;;;;;;4992924;28;20094;-67
2022/05/11 09:37:42;;;;;;;25.40;4.65;;;;;;;;;;4996824;28;20622;-68
2022/05/11 09:40:17;;;;;;;25.08;4.90;;;;;;;;;;4994523;28;20033;-68
2022/05/11 09:43:10;;;;;;;28.42;4.50;;;;;;;;;;4994693;28;20311;-68
2022/05/11 09:45:35;;;;;;;28.85;4.53;;;;;;;;;;4992030;28;20041;-67
2022/05/11 09:48:07;;;;;;;31.27;4.78;;;;;;;;;;4992674;28;20072;-69
2022/05/11 09:50:33;;;;;;;32.30;5.13;;;;;;;;;;4991488;28;20059;-67
2022/05/11 09:53:07;;;;;;;30.83;5.57;;;;;;;;;;4993934;28;20067;-67
2022/05/11 09:55:33;;;;;;;29.15;5.30;;;;;;;;;;4996583;28;20033;-67
2022/05/11 09:58:01;;;;;;;27.83;4.78;;;;;;;;;;4995471;28;20040;-70
2022/05/11 10:00:34;;;;;;;26.10;3.97;;;;;;;;;;4997427;28;20847;-71
2022/05/11 10:03:02;;;;;;;26.95;4.90;;;;;;;;;;4996369;28;20063;-70
2022/05/11 10:05:29;;;;;;;27.73;4.53;;;;;;;;;;4991509;28;20033;-70
2022/05/11 10:08:02;;;;;;;24.95;5.18;;;;;;;;;;4994860;28;21041;-70
2022/05/11 10:10:42;;;;;;;24.17;4.70;;;;;;;;;;4994084;28;20032;-70
2022/05/11 10:13:07;;;;;;;25.95;4.15;;;;;;;;;;4994391;28;20052;-68
2022/05/11 10:24:09;;;;;;;29.95;4.97;;;;;;;;;;4997199;28;20141;-70
2022/05/11 10:26:46;;;;;;;26.42;4.68;;;;;;;;;;4991773;28;20044;-71
2022/05/11 10:29:11;;;;;;;28.90;5.13;;;;;;;;;;4992789;28;20045;-71
2022/05/11 10:31:41;;;;;;;24.55;4.35;;;;;;;;;;4994553;28;20044;-71
2022/05/11 10:34:27;;;;;;;25.30;5.00;;;;;;;;;;4998937;28;20037;-69
2022/05/11 10:36:53;;;;;;;33.33;5.10;;;;;;;;;;4997550;28;20114;-67
2022/05/11 10:39:39;;;;;;;27.55;5.05;;;;;;;;;;4996112;28;20132;-69
2022/05/11 10:42:12;;;;;;;26.52;4.40;;;;;;;;;;4996277;28;20560;-68
2022/05/11 10:44:56;;;;;;;29.48;5.07;;;;;;;;;;4997472;28;20032;-68
2022/05/11 10:47:40;;;;;;;23.95;4.35;;;;;;;;;;5009748;28;20082;-68
2022/05/11 10:50:06;;;;;;;30.17;4.30;;;;;;;;;;4997408;28;20037;-69
2022/05/11 10:52:37;;;;;;;28.65;4.97;;;;;;;;;;4998062;28;20786;-70
2022/05/11 10:55:08;;;;;;;21.08;4.80;;;;;;;;;;4998490;28;20045;-68
2022/05/11 10:57:39;;;;;;;21.60;4.13;;;;;;;;;;4996826;28;20044;-70
2022/05/11 11:00:12;;;;;;;24.80;4.30;;;;;;;;;;4996763;28;20072;-67
2022/05/11 11:02:56;;;;;;;29.40;5.18;;;;;;;;;;4993602;28;20343;-70
2022/05/11 11:05:31;;;;;;;25.73;4.20;;;;;;;;;;4991387;28;20033;-70
2022/05/11 11:08:02;;;;;;;34.28;4.82;;;;;;;;;;4989913;28;20053;-69
2022/05/11 11:10:30;;;;;;;25.20;4.75;;;;;;;;;;4993387;28;20040;-72
2022/05/11 11:13:01;;;;;;;23.77;4.68;;;;;;;;;;4992671;28;20093;-71
2022/05/11 11:15:28;;;;;;;18.52;4.05;;;;;;;;;;4995062;28;20031;-73
2022/05/11 11:17:55;;;;;;;24.55;4.53;;;;;;;;;;4995120;28;20045;-70
2022/05/11 11:20:21;;;;;;;30.55;5.25;;;;;;;;;;4990491;28;20041;-70
2022/05/11 11:23:04;;;;;;;22.80;4.40;;;;;;;;;;4999167;28;20091;-70
2022/05/11 11:25:42;;;;;;;22.52;4.75;;;;;;;;;;5010454;28;20069;-69
2022/05/11 11:28:10;;;;;;;26.08;4.57;;;;;;;;;;4997482;28;20048;-71
2022/05/11 11:30:39;;;;;;;23.20;4.28;;;;;;;;;;4992056;28;20122;-71
2022/05/11 11:33:15;;;;;;;25.20;5.47;;;;;;;;;;4992664;28;20597;-72
2022/05/11 11:35:57;;;;;;;28.38;4.28;;;;;;;;;;5001418;28;20037;-72
2022/05/11 11:38:24;;;;;;;25.45;4.25;;;;;;;;;;5002073;28;20041;-71
2022/05/11 11:41:07;;;;;;;21.60;3.72;;;;;;;;;;5000566;28;20088;-72
2022/05/11 11:43:40;;;;;;;22.48;3.90;;;;;;;;;;5001913;28;20061;-69
2022/05/11 11:46:06;;;;;;;24.30;4.80;;;;;;;;;;4999354;28;20064;-67
2022/05/11 11:48:31;;;;;;;21.50;3.97;;;;;;;;;;4999412;28;20029;-78
2022/05/11 11:50:59;;;;;;;21.70;4.38;;;;;;;;;;5002667;28;20441;-69
2022/05/11 11:53:24;;;;;;;26.55;3.95;;;;;;;;;;4998494;28;20033;-68
2022/05/11 11:55:50;;;;;;;22.80;4.28;;;;;;;;;;4991921;28;20074;-67
2022/05/11 11:58:23;;;;;;;23.48;3.85;;;;;;;;;;5000155;28;20049;-71
2022/05/11 12:00:49;;;;;;;24.52;3.90;;;;;;;;;;4999611;28;20663;-70
2022/05/11 12:03:22;;;;;;;25.02;3.92;;;;;;;;;;4996419;28;20801;-69
2022/05/11 12:05:51;;;;;;;17.33;3.95;;;;;;;;;;4999242;28;20873;-72
2022/05/11 12:16:56;;;;;;;22.70;4.05;;;;;;;;;;5000622;28;20144;-69
2022/05/11 12:19:26;;;;;;;18.60;3.45;;;;;;;;;;5000698;28;20037;-70
2022/05/11 12:21:57;;;;;;;18.85;3.67;;;;;;;;;;4999173;28;20045;-68
2022/05/11 12:24:32;;;;;;;31.13;4.55;;;;;;;;;;4999442;28;20041;-70
2022/05/11 12:27:01;;;;;;;19.75;3.70;;;;;;;;;;5001571;28;20156;-69
2022/05/11 12:30:04;;;;;;;25.33;3.90;;;;;;;;;;5000952;28;20723;-70
2022/05/11 12:32:29;;;;;;;19.13;3.80;;;;;;;;;;4996874;28;20136;-70
2022/05/11 12:34:56;;;;;;;17.73;3.80;;;;;;;;;;5001345;28;20124;-69
2022/05/11 12:37:29;;;;;;;29.77;4.05;;;;;;;;;;5001305;28;20040;-69
2022/05/11 12:39:55;;;;;;;28.65;4.32;;;;;;;;;;4998359;28;20294;-68
2022/05/11 12:42:28;;;;;;;23.30;3.33;;;;;;;;;;4999377;28;20045;-66
2022/05/11 12:44:54;;;;;;;20.50;3.45;;;;;;;;;;5002181;28;20069;-67
2022/05/11 12:47:20;;;;;;;32.25;3.80;;;;;;;;;;5001014;28;20075;-69
2022/05/11 12:49:46;;;;;;;26.90;4.18;;;;;;;;;;4998513;28;20036;-68
2022/05/11 12:52:14;;;;;;;29.55;4.03;;;;;;;;;;5000389;28;20048;-67
2022/05/11 12:54:40;;;;;;;30.13;3.90;;;;;;;;;;4999224;28;20037;-67
2022/05/11 12:57:15;;;;;;;28.63;4.07;;;;;;;;;;5000661;28;20063;-70
2022/05/11 12:59:52;;;;;;;33.15;4.55;;;;;;;;;;5001316;28;20048;-69
2022/05/11 13:02:25;;;;;;;29.27;3.88;;;;;;;;;;5001726;28;20048;-72
2022/05/11 13:05:00;;;;;;;24.25;4.13;;;;;;;;;;4998148;28;20851;-65
2022/05/11 13:07:44;;;;;;;22.15;3.88;;;;;;;;;;4996736;28;20853;-66
2022/05/11 13:10:16;;;;;;;26.80;4.18;;;;;;;;;;4998163;28;20846;-68
2022/05/11 13:12:46;;;;;;;26.77;4.15;;;;;;;;;;5014069;28;20136;-65
2022/05/11 13:15:11;;;;;;;21.95;3.55;;;;;;;;;;4995886;28;20110;-65
2022/05/11 13:17:39;;;;;;;24.90;3.72;;;;;;;;;;4997936;28;20159;-64
2022/05/11 13:20:25;;;;;;;21.20;3.15;;;;;;;;;;4998228;28;20033;-65
2022/05/11 13:22:54;;;;;;;19.90;3.53;;;;;;;;;;4993988;28;20425;-65
2022/05/11 13:25:40;;;;;;;18.15;3.83;;;;;;;;;;4992738;28;20041;-64
2022/05/11 13:28:10;;;;;;;21.25;4.18;;;;;;;;;;4994129;28;20029;-64
2022/05/11 13:30:40;;;;;;;23.60;3.63;;;;;;;;;;4991321;28;20034;-64
2022/05/11 13:33:25;;;;;;;19.83;3.20;;;;;;;;;;4993546;28;20357;-62
2022/05/11 13:36:03;;;;;;;21.73;3.47;;;;;;;;;;4992565;28;20045;-62
2022/05/11 13:38:29;;;;;;;25.38;4.22;;;;;;;;;;4993936;28;20682;-63
2022/05/11 13:40:54;;;;;;;22.17;3.45;;;;;;;;;;4993263;28;20249;-64
2022/05/11 13:43:21;;;;;;;24.20;4.18;;;;;;;;;;4999366;28;20048;-69
2022/05/11 13:45:54;;;;;;;19.55;3.90;;;;;;;;;;5000131;28;21969;-70
2022/05/11 13:48:24;;;;;;;18.08;3.38;;;;;;;;;;5014767;28;20086;-70
2022/05/11 13:50:50;;;;;;;21.25;3.90;;;;;;;;;;5004957;28;20601;-70
2022/05/11 13:53:37;;;;;;;17.92;3.50;;;;;;;;;;5000983;28;20039;-68
2022/05/11 13:56:09;;;;;;;19.33;3.50;;;;;;;;;;4989025;28;20449;-68
2022/05/11 13:58:36;;;;;;;20.90;3.60;;;;;;;;;;4993734;28;20460;-63
2022/05/11 14:01:21;;;;;;;16.05;3.28;;;;;;;;;;4990690;28;20237;-64
2022/05/11 14:03:49;;;;;;;19.58;3.80;;;;;;;;;;4993443;28;20036;-64
2022/05/11 14:06:19;;;;;;;22.00;3.60;;;;;;;;;;5006806;28;20195;-64
2022/05/11 14:08:45;;;;;;;23.65;3.67;;;;;;;;;;4990832;28;20385;-62
2022/05/11 14:11:10;;;;;;;20.58;3.58;;;;;;;;;;4995296;28;20037;-62
2022/05/11 14:13:40;;;;;;;19.30;3.45;;;;;;;;;;4994918;28;20118;-62
2022/05/11 14:16:09;;;;;;;18.83;3.70;;;;;;;;;;4994919;28;20084;-61
2022/05/11 14:18:36;;;;;;;25.73;4.10;;;;;;;;;;4992731;28;20040;-62
2022/05/11 14:21:02;;;;;;;18.13;3.38;;;;;;;;;;4996634;28;20078;-60
2022/05/11 14:23:27;;;;;;;19.67;3.65;;;;;;;;;;4995335;28;21938;-61
2022/05/11 14:25:52;;;;;;;18.70;3.90;;;;;;;;;;4994125;28;20075;-63
2022/05/11 14:28:18;;;;;;;16.10;3.25;;;;;;;;;;4995936;28;20097;-62
2022/05/11 14:30:43;;;;;;;21.10;4.03;;;;;;;;;;4996693;28;20033;-64
2022/05/11 14:33:13;;;;;;;20.67;3.72;;;;;;;;;;5011278;28;20034;-61
2022/05/11 14:35:39;;;;;;;16.70;3.65;;;;;;;;;;4994641;28;20227;-61
2022/05/11 14:38:05;;;;;;;18.25;3.70;;;;;;;;;;4996629;28;20060;-63
2022/05/11 14:40:30;;;;;;;19.60;3.80;;;;;;;;;;4993740;28;20140;-65
2022/05/11 14:42:56;;;;;;;23.38;3.83;;;;;;;;;;4998509;28;20781;-64
2022/05/11 14:45:21;;;;;;;21.30;4.18;;;;;;;;;;4996567;28;20029;-66
2022/05/11 14:47:50;;;;;;;25.20;4.75;;;;;;;;;;4996526;28;20604;-67
2022/05/11 14:50:17;;;;;;;25.17;4.38;;;;;;;;;;4994453;28;20029;-65
2022/05/11 14:52:44;;;;;;;17.48;4.07;;;;;;;;;;4992301;28;20049;-63
2022/05/11 14:55:10;;;;;;;23.02;4.38;;;;;;;;;;4990346;28;20037;-65
2022/05/11 15:03:03;;;;;;;21.88;3.53;;;;;;;;;;4996418;28;20159;-64
2022/05/11 15:05:28;;;;;;;15.38;3.33;;;;;;;;;;4994977;28;20032;-63
2022/05/11 15:07:57;;;;;;;17.85;3.92;;;;;;;;;;4997255;28;20047;-63
2022/05/11 15:10:23;;;;;;;18.42;4.00;;;;;;;;;;5007733;28;20036;-63
2022/05/11 15:15:33;;;;;;;20.60;3.95;;;;;;;;;;4999152;28;20037;-62
2022/05/11 15:17:58;;;;;;;25.38;4.13;;;;;;;;;;4999574;28;20155;-63
2022/05/11 15:20:29;;;;;;;23.25;4.05;;;;;;;;;;5000279;28;20119;-62
2022/05/11 15:22:55;;;;;;;23.70;4.15;;;;;;;;;;4999945;28;20051;-64
2022/05/11 15:25:21;;;;;;;18.45;3.50;;;;;;;;;;5009381;28;20153;-63
2022/05/11 15:27:48;;;;;;;22.70;3.95;;;;;;;;;;4999557;28;20037;-63